createdAt,value
2023-04-06T00:00:14.256Z,1012.15
2023-04-06T00:01:14.251Z,1012.12
2023-04-06T00:02:14.171Z,1012.16
2023-04-06T00:03:14.236Z,1012.12
2023-04-06T00:04:14.151Z,1012.12
2023-04-06T00:05:14.160Z,1012.12
2023-04-06T00:06:16.013Z,1012.14
2023-04-06T00:07:14.084Z,1012.08
2023-04-06T00:08:14.104Z,1012.06
2023-04-06T00:09:14.110Z,1012.04
2023-04-06T00:10:14.079Z,1012.07
2023-04-06T00:11:14.092Z,1012.06
2023-04-06T00:12:14.038Z,1012.10
2023-04-06T00:13:14.029Z,1012.10
2023-04-06T00:14:14.011Z,1012.08
2023-04-06T00:15:14.006Z,1012.08
2023-04-06T00:16:14.056Z,1012.06
2023-04-06T00:17:13.969Z,1012.09
2023-04-06T00:18:14.064Z,1012.07
2023-04-06T00:19:13.966Z,1012.07
2023-04-06T00:20:14.039Z,1012.03
2023-04-06T00:21:13.927Z,1012.02
2023-04-06T00:22:14.003Z,1012.01
2023-04-06T00:23:13.904Z,1012.02
2023-04-06T00:24:13.933Z,1011.99
2023-04-06T00:25:13.909Z,1011.96
2023-04-06T00:26:13.892Z,1011.97
2023-04-06T00:27:13.884Z,1011.96
2023-04-06T00:28:13.914Z,1011.99
2023-04-06T00:29:13.912Z,1011.94
2023-04-06T00:30:13.878Z,1011.95
2023-04-06T00:31:13.839Z,1011.95
2023-04-06T00:32:13.867Z,1011.93
2023-04-06T00:33:13.833Z,1011.95
2023-04-06T00:34:13.850Z,1011.92
2023-04-06T00:35:13.808Z,1011.94
2023-04-06T00:36:13.858Z,1011.90
2023-04-06T00:37:13.765Z,1011.89
2023-04-06T00:38:13.776Z,1011.91
2023-04-06T00:39:13.756Z,1011.88
2023-04-06T00:40:13.794Z,1011.89
2023-04-06T00:41:13.749Z,1011.90
2023-04-06T00:42:13.740Z,1011.89
2023-04-06T00:43:13.758Z,1011.84
2023-04-06T00:44:13.698Z,1011.84
2023-04-06T00:45:13.694Z,1011.81
2023-04-06T00:46:13.832Z,1011.84
2023-04-06T00:47:13.658Z,1011.84
2023-04-06T00:48:13.666Z,1011.82
2023-04-06T00:49:13.649Z,1011.81
2023-04-06T00:50:13.658Z,1011.79
2023-04-06T00:51:13.620Z,1011.78
2023-04-06T00:52:13.652Z,1011.76
2023-04-06T00:53:13.600Z,1011.75
2023-04-06T00:54:13.686Z,1011.75
2023-04-06T00:55:13.655Z,1011.70
2023-04-06T00:56:13.587Z,1011.67
2023-04-06T00:57:13.597Z,1011.69
2023-04-06T00:58:13.556Z,1011.66
2023-04-06T00:59:13.629Z,1011.66
2023-04-06T01:00:13.641Z,1011.65
2023-04-06T01:01:13.576Z,1011.65
2023-04-06T01:02:13.550Z,1011.65
2023-04-06T01:03:13.497Z,1011.59
2023-04-06T01:04:13.532Z,1011.63
2023-04-06T01:05:13.525Z,1011.60
2023-04-06T01:06:13.482Z,1011.59
2023-04-06T01:07:13.453Z,1011.60
2023-04-06T01:08:13.538Z,1011.52
2023-04-06T01:09:13.536Z,1011.53
2023-04-06T01:10:13.479Z,1011.52
2023-04-06T01:11:13.436Z,1011.50
2023-04-06T01:12:13.484Z,1011.48
2023-04-06T01:13:13.468Z,1011.51
2023-04-06T01:14:13.413Z,1011.49
2023-04-06T01:15:13.397Z,1011.50
2023-04-06T01:16:13.415Z,1011.46
2023-04-06T01:17:13.349Z,1011.44
2023-04-06T01:18:13.367Z,1011.46
2023-04-06T01:19:13.330Z,1011.44
2023-04-06T01:20:13.434Z,1011.44
2023-04-06T01:21:13.360Z,1011.41
2023-04-06T01:22:13.310Z,1011.42
2023-04-06T01:23:13.289Z,1011.43
2023-04-06T01:24:13.318Z,1011.40
2023-04-06T01:25:13.329Z,1011.40
2023-04-06T01:26:13.291Z,1011.38
2023-04-06T01:27:13.264Z,1011.37
2023-04-06T01:28:13.302Z,1011.34
2023-04-06T01:29:13.229Z,1011.33
2023-04-06T01:30:13.253Z,1011.32
2023-04-06T01:31:13.276Z,1011.30
2023-04-06T01:32:13.236Z,1011.29
2023-04-06T01:33:13.229Z,1011.28
2023-04-06T01:34:13.327Z,1011.23
2023-04-06T01:35:13.200Z,1011.26
2023-04-06T01:36:13.218Z,1011.27
2023-04-06T01:37:13.164Z,1011.23
2023-04-06T01:38:13.149Z,1011.26
2023-04-06T01:39:13.140Z,1011.26
2023-04-06T01:40:13.147Z,1011.27
2023-04-06T01:41:13.111Z,1011.26
2023-04-06T01:42:13.100Z,1011.26
2023-04-06T01:43:13.089Z,1011.26
2023-04-06T01:44:13.082Z,1011.29
2023-04-06T01:45:13.079Z,1011.27
2023-04-06T01:46:13.226Z,1011.27
2023-04-06T01:47:13.061Z,1011.30
2023-04-06T01:48:13.086Z,1011.25
2023-04-06T01:49:13.031Z,1011.28
2023-04-06T01:50:13.107Z,1011.24
2023-04-06T01:51:13.017Z,1011.26
2023-04-06T01:52:13.002Z,1011.24
2023-04-06T01:53:12.989Z,1011.20
2023-04-06T01:54:12.994Z,1011.20
2023-04-06T01:55:13.017Z,1011.19
2023-04-06T01:56:12.955Z,1011.18
2023-04-06T01:57:12.939Z,1011.18
2023-04-06T01:58:12.960Z,1011.15
2023-04-06T01:59:12.952Z,1011.17
2023-04-06T02:00:12.929Z,1011.18
2023-04-06T02:01:12.957Z,1011.16
2023-04-06T02:02:12.957Z,1011.16
2023-04-06T02:03:12.939Z,1011.17
2023-04-06T02:04:12.914Z,1011.17
2023-04-06T02:05:12.932Z,1011.18
2023-04-06T02:06:12.859Z,1011.16
2023-04-06T02:07:12.886Z,1011.15
2023-04-06T02:08:12.877Z,1011.16
2023-04-06T02:09:12.818Z,1011.14
2023-04-06T02:10:12.852Z,1011.15
2023-04-06T02:11:12.805Z,1011.12
2023-04-06T02:12:12.886Z,1011.13
2023-04-06T02:13:12.785Z,1011.14
2023-04-06T02:14:12.783Z,1011.09
2023-04-06T02:15:12.768Z,1011.06
2023-04-06T02:16:12.842Z,1011.07
2023-04-06T02:17:12.761Z,1011.08
2023-04-06T02:18:12.790Z,1011.08
2023-04-06T02:19:12.749Z,1011.08
2023-04-06T02:20:12.781Z,1011.06
2023-04-06T02:21:12.743Z,1011.06
2023-04-06T02:22:12.771Z,1011.03
2023-04-06T02:23:12.679Z,1011.01
2023-04-06T02:24:12.673Z,1011.08
2023-04-06T02:25:12.695Z,1011.05
2023-04-06T02:26:12.653Z,1011.07
2023-04-06T02:27:12.625Z,1011.04
2023-04-06T02:28:12.670Z,1011.08
2023-04-06T02:29:12.622Z,1011.06
2023-04-06T02:30:12.663Z,1011.03
2023-04-06T02:31:12.671Z,1011.02
2023-04-06T02:32:12.645Z,1011.05
2023-04-06T02:33:12.564Z,1011.03
2023-04-06T02:34:12.630Z,1011.03
2023-04-06T02:35:12.554Z,1011.02
2023-04-06T02:36:12.556Z,1011.07
2023-04-06T02:37:12.534Z,1011.07
2023-04-06T02:38:12.591Z,1011.06
2023-04-06T02:39:12.540Z,1011.03
2023-04-06T02:40:12.523Z,1011.04
2023-04-06T02:41:12.494Z,1011.04
2023-04-06T02:42:12.550Z,1011.03
2023-04-06T02:43:12.462Z,1011.03
2023-04-06T02:44:12.472Z,1011.04
2023-04-06T02:45:12.493Z,1011.07
2023-04-06T02:46:12.558Z,1011.04
2023-04-06T02:47:12.422Z,1011.07
2023-04-06T02:48:12.416Z,1011.04
2023-04-06T02:49:12.401Z,1011.04
2023-04-06T02:50:12.467Z,1011.01
2023-04-06T02:51:12.389Z,1011.07
2023-04-06T02:52:12.385Z,1011.00
2023-04-06T02:53:12.390Z,1011.01
2023-04-06T02:54:12.356Z,1010.99
2023-04-06T02:55:12.352Z,1010.98
2023-04-06T02:56:12.490Z,1010.94
2023-04-06T02:57:12.350Z,1010.97
2023-04-06T02:58:12.442Z,1010.95
2023-04-06T02:59:12.434Z,1010.94
2023-04-06T03:00:12.364Z,1010.95
2023-04-06T03:01:12.336Z,1010.98
2023-04-06T03:02:12.277Z,1010.92
2023-04-06T03:03:12.300Z,1010.91
2023-04-06T03:04:12.287Z,1010.87
2023-04-06T03:05:12.234Z,1010.89
2023-04-06T03:06:12.272Z,1010.86
2023-04-06T03:07:12.232Z,1010.92
2023-04-06T03:08:12.237Z,1010.91
2023-04-06T03:09:12.204Z,1010.93
2023-04-06T03:10:12.187Z,1010.90
2023-04-06T03:11:12.191Z,1010.93
2023-04-06T03:12:12.204Z,1010.90
2023-04-06T03:13:12.157Z,1010.93
2023-04-06T03:14:12.158Z,1010.90
2023-04-06T03:15:12.152Z,1010.91
2023-04-06T03:16:12.198Z,1010.94
2023-04-06T03:17:12.113Z,1010.93
2023-04-06T03:18:12.163Z,1010.93
2023-04-06T03:19:12.094Z,1010.94
2023-04-06T03:20:12.091Z,1010.92
2023-04-06T03:21:12.086Z,1010.92
2023-04-06T03:22:12.168Z,1010.91
2023-04-06T03:23:12.084Z,1010.91
2023-04-06T03:24:12.060Z,1010.94
2023-04-06T03:25:12.032Z,1010.91
2023-04-06T03:26:12.052Z,1010.92
2023-04-06T03:27:12.018Z,1010.92
2023-04-06T03:28:12.038Z,1010.91
2023-04-06T03:29:11.988Z,1010.94
2023-04-06T03:30:11.977Z,1010.92
2023-04-06T03:31:11.975Z,1010.96
2023-04-06T03:32:12.014Z,1010.94
2023-04-06T03:33:11.953Z,1010.95
2023-04-06T03:34:11.987Z,1010.95
2023-04-06T03:35:12.009Z,1010.93
2023-04-06T03:36:11.966Z,1010.94
2023-04-06T03:37:11.910Z,1010.93
2023-04-06T03:38:12.019Z,1010.96
2023-04-06T03:39:11.914Z,1010.91
2023-04-06T03:40:11.904Z,1010.94
2023-04-06T03:41:11.875Z,1010.93
2023-04-06T03:42:11.940Z,1010.98
2023-04-06T03:43:11.885Z,1010.94
2023-04-06T03:44:11.884Z,1010.98
2023-04-06T03:45:11.889Z,1010.96
2023-04-06T03:46:11.839Z,1010.96
2023-04-06T03:47:11.857Z,1010.93
2023-04-06T03:48:11.953Z,1010.90
2023-04-06T03:49:11.779Z,1010.96
2023-04-06T03:50:11.850Z,1010.93
2023-04-06T03:51:11.791Z,1010.95
2023-04-06T03:52:12.048Z,1010.95
2023-04-06T03:53:11.741Z,1010.91
2023-04-06T03:54:11.797Z,1010.94
2023-04-06T03:55:11.723Z,1010.91
2023-04-06T03:56:11.715Z,1010.90
2023-04-06T03:57:11.699Z,1010.97
2023-04-06T03:58:11.741Z,1010.92
2023-04-06T03:59:11.804Z,1010.93
2023-04-06T04:00:11.687Z,1010.95
2023-04-06T04:01:11.672Z,1010.93
2023-04-06T04:02:11.684Z,1010.97
2023-04-06T04:03:11.751Z,1010.93
2023-04-06T04:04:11.662Z,1010.96
2023-04-06T04:05:11.642Z,1010.91
2023-04-06T04:06:11.608Z,1010.95
2023-04-06T04:07:11.622Z,1010.94
2023-04-06T04:08:11.608Z,1010.95
2023-04-06T04:09:11.601Z,1010.98
2023-04-06T04:10:11.585Z,1010.97
2023-04-06T04:11:11.620Z,1010.94
2023-04-06T04:12:11.583Z,1010.97
2023-04-06T04:13:11.532Z,1010.94
2023-04-06T04:14:11.536Z,1010.98
2023-04-06T04:15:11.534Z,1010.98
2023-04-06T04:16:11.545Z,1010.92
2023-04-06T04:17:11.490Z,1010.86
2023-04-06T04:18:11.534Z,1010.91
2023-04-06T04:19:11.468Z,1010.92
2023-04-06T04:20:11.469Z,1010.91
2023-04-06T04:21:11.466Z,1010.93
2023-04-06T04:22:11.457Z,1010.94
2023-04-06T04:23:11.582Z,1010.95
2023-04-06T04:24:11.516Z,1010.93
2023-04-06T04:25:11.413Z,1010.95
2023-04-06T04:26:11.494Z,1010.95
2023-04-06T04:27:11.391Z,1010.98
2023-04-06T04:28:11.384Z,1010.96
2023-04-06T04:29:11.378Z,1010.98
2023-04-06T04:30:11.377Z,1010.98
2023-04-06T04:31:11.374Z,1010.95
2023-04-06T04:32:11.406Z,1010.99
2023-04-06T04:33:11.414Z,1010.98
2023-04-06T04:34:11.377Z,1010.99
2023-04-06T04:35:11.313Z,1010.95
2023-04-06T04:36:11.358Z,1010.99
2023-04-06T04:37:11.317Z,1010.98
2023-04-06T04:38:11.460Z,1011.01
2023-04-06T04:39:11.289Z,1010.99
2023-04-06T04:40:11.448Z,1010.99
2023-04-06T04:41:11.309Z,1011.00
2023-04-06T04:42:11.343Z,1011.03
2023-04-06T04:43:11.247Z,1011.03
2023-04-06T04:44:11.233Z,1011.06
2023-04-06T04:45:11.275Z,1011.06
2023-04-06T04:46:11.321Z,1011.03
2023-04-06T04:47:11.192Z,1011.03
2023-04-06T04:48:11.285Z,1011.05
2023-04-06T04:49:11.247Z,1011.05
2023-04-06T04:50:11.163Z,1011.09
2023-04-06T04:51:11.167Z,1011.08
2023-04-06T04:52:11.166Z,1011.07
2023-04-06T04:53:11.141Z,1011.06
2023-04-06T04:54:11.116Z,1011.04
2023-04-06T04:55:11.154Z,1011.08
2023-04-06T04:56:11.264Z,1011.05
2023-04-06T04:57:11.091Z,1011.02
2023-04-06T04:58:11.095Z,1011.04
2023-04-06T04:59:11.338Z,1011.03
2023-04-06T05:00:11.106Z,1011.05
2023-04-06T05:01:11.097Z,1011.09
2023-04-06T05:02:11.136Z,1011.06
2023-04-06T05:03:11.127Z,1011.08
2023-04-06T05:04:11.099Z,1011.07
2023-04-06T05:05:11.064Z,1011.09
2023-04-06T05:06:13.275Z,1011.11
2023-04-06T05:07:10.983Z,1011.14
2023-04-06T05:08:10.996Z,1011.08
2023-04-06T05:09:11.060Z,1011.11
2023-04-06T05:10:10.964Z,1011.13
2023-04-06T05:11:10.978Z,1011.13
2023-04-06T05:12:10.944Z,1011.08
2023-04-06T05:13:10.916Z,1011.06
2023-04-06T05:14:10.919Z,1011.07
2023-04-06T05:15:10.899Z,1011.05
2023-04-06T05:16:10.933Z,1011.08
2023-04-06T05:17:10.876Z,1011.13
2023-04-06T05:18:10.922Z,1011.09
2023-04-06T05:19:10.866Z,1011.11
2023-04-06T05:20:10.888Z,1011.08
2023-04-06T05:21:10.878Z,1011.13
2023-04-06T05:22:10.850Z,1011.13
2023-04-06T05:23:10.825Z,1011.10
2023-04-06T05:24:10.896Z,1011.12
2023-04-06T05:25:10.856Z,1011.12
2023-04-06T05:26:10.957Z,1011.11
2023-04-06T05:27:10.776Z,1011.16
2023-04-06T05:28:10.788Z,1011.15
2023-04-06T05:29:11.102Z,1011.11
2023-04-06T05:30:10.768Z,1011.10
2023-04-06T05:31:10.813Z,1011.12
2023-04-06T05:32:10.778Z,1011.13
2023-04-06T05:33:10.729Z,1011.15
2023-04-06T05:34:10.817Z,1011.11
2023-04-06T05:35:10.698Z,1011.12
2023-04-06T05:36:11.977Z,1011.12
2023-04-06T05:37:10.664Z,1011.06
2023-04-06T05:38:10.721Z,1011.10
2023-04-06T05:39:10.945Z,1011.08
2023-04-06T05:40:10.696Z,1011.10
2023-04-06T05:41:10.671Z,1011.11
2023-04-06T05:42:10.654Z,1011.09
2023-04-06T05:43:10.598Z,1011.09
2023-04-06T05:44:10.828Z,1011.11
2023-04-06T05:45:10.597Z,1011.12
2023-04-06T05:46:10.858Z,1011.08
2023-04-06T05:47:10.569Z,1011.03
2023-04-06T05:48:10.693Z,1011.08
2023-04-06T05:49:10.912Z,1010.99
2023-04-06T05:50:10.668Z,1011.08
2023-04-06T05:51:10.630Z,1011.11
2023-04-06T05:52:10.506Z,1011.16
2023-04-06T05:53:10.495Z,1011.14
2023-04-06T05:54:10.511Z,1011.12
2023-04-06T05:55:10.755Z,1011.14
2023-04-06T05:56:10.474Z,1011.11
2023-04-06T05:57:10.448Z,1011.13
2023-04-06T05:58:10.443Z,1011.12
2023-04-06T05:59:10.683Z,1011.09
2023-04-06T06:00:10.474Z,1011.10
2023-04-06T06:01:10.409Z,1011.12
2023-04-06T06:02:10.513Z,1011.14
2023-04-06T06:03:10.397Z,1011.15
2023-04-06T06:04:10.407Z,1011.11
2023-04-06T06:05:10.376Z,1011.12
2023-04-06T06:06:10.517Z,1011.13
2023-04-06T06:07:10.357Z,1011.10
2023-04-06T06:08:10.392Z,1011.06
2023-04-06T06:09:10.489Z,1011.08
2023-04-06T06:10:10.461Z,1011.08
2023-04-06T06:11:10.290Z,1011.09
2023-04-06T06:12:12.027Z,1011.03
2023-04-06T06:13:11.307Z,1011.04
2023-04-06T06:14:10.299Z,1011.00
2023-04-06T06:15:10.251Z,1011.00
2023-04-06T06:16:10.353Z,1010.98
2023-04-06T06:17:10.240Z,1010.98
2023-04-06T06:18:10.387Z,1011.03
2023-04-06T06:19:10.262Z,1011.00
2023-04-06T06:20:10.357Z,1010.96
2023-04-06T06:21:10.198Z,1010.98
2023-04-06T06:22:10.200Z,1010.93
2023-04-06T06:23:10.228Z,1010.88
2023-04-06T06:24:10.411Z,1010.90
2023-04-06T06:25:10.143Z,1010.89
2023-04-06T06:26:10.385Z,1010.89
2023-04-06T06:27:10.114Z,1010.94
2023-04-06T06:28:10.202Z,1010.91
2023-04-06T06:29:10.319Z,1010.95
2023-04-06T06:30:10.152Z,1010.86
2023-04-06T06:31:10.152Z,1010.88
2023-04-06T06:32:10.189Z,1010.85
2023-04-06T06:33:10.073Z,1010.91
2023-04-06T06:34:10.456Z,1010.86
2023-04-06T06:35:10.048Z,1010.86
2023-04-06T06:36:10.103Z,1010.83
2023-04-06T06:37:10.020Z,1010.89
2023-04-06T06:38:10.092Z,1010.79
2023-04-06T06:39:10.209Z,1010.81
2023-04-06T06:40:10.049Z,1010.82
2023-04-06T06:41:09.984Z,1010.86
2023-04-06T06:42:10.006Z,1010.77
2023-04-06T06:43:09.965Z,1010.82
2023-04-06T06:44:10.220Z,1010.78
2023-04-06T06:45:09.962Z,1010.82
2023-04-06T06:46:10.029Z,1010.86
2023-04-06T06:47:09.954Z,1010.82
2023-04-06T06:48:10.033Z,1010.75
2023-04-06T06:49:09.917Z,1010.76
2023-04-06T06:50:09.961Z,1010.74
2023-04-06T06:51:09.915Z,1010.75
2023-04-06T06:52:09.990Z,1010.73
2023-04-06T06:53:09.864Z,1010.71
2023-04-06T06:54:10.084Z,1010.69
2023-04-06T06:55:09.911Z,1010.72
2023-04-06T06:56:09.905Z,1010.72
2023-04-06T06:57:09.802Z,1010.72
2023-04-06T06:58:09.854Z,1010.65
2023-04-06T06:59:10.027Z,1010.68
2023-04-06T07:00:12.281Z,1010.66
2023-04-06T07:01:09.796Z,1010.69
2023-04-06T07:02:09.814Z,1010.74
2023-04-06T07:03:09.760Z,1010.70
2023-04-06T07:04:10.264Z,1010.66
2023-04-06T07:05:23.632Z,1010.62
2023-04-06T07:06:10.734Z,1010.60
2023-04-06T07:07:09.710Z,1010.65
2023-04-06T07:08:09.740Z,1010.58
2023-04-06T07:09:09.762Z,1010.55
2023-04-06T07:10:09.799Z,1010.50
2023-04-06T07:11:09.697Z,1010.54
2023-04-06T07:12:09.712Z,1010.56
2023-04-06T07:13:09.665Z,1010.57
2023-04-06T07:14:09.765Z,1010.62
2023-04-06T07:15:09.638Z,1010.58
2023-04-06T07:16:09.818Z,1010.57
2023-04-06T07:17:09.948Z,1010.55
2023-04-06T07:18:09.696Z,1010.50
2023-04-06T07:19:09.593Z,1010.48
2023-04-06T07:20:09.614Z,1010.46
2023-04-06T07:21:09.569Z,1010.48
2023-04-06T07:22:09.566Z,1010.48
2023-04-06T07:23:09.545Z,1010.46
2023-04-06T07:24:09.749Z,1010.48
2023-04-06T07:25:09.541Z,1010.49
2023-04-06T07:26:09.555Z,1010.52
2023-04-06T07:27:09.531Z,1010.46
2023-04-06T07:28:09.554Z,1010.49
2023-04-06T07:29:09.493Z,1010.49
2023-04-06T07:30:09.536Z,1010.49
2023-04-06T07:31:09.437Z,1010.44
2023-04-06T07:32:09.526Z,1010.48
2023-04-06T07:33:09.421Z,1010.50
2023-04-06T07:34:09.705Z,1010.47
2023-04-06T07:35:09.691Z,1010.49
2023-04-06T07:36:09.650Z,1010.46
2023-04-06T07:37:09.436Z,1010.46
2023-04-06T07:38:09.376Z,1010.40
2023-04-06T07:39:09.342Z,1010.46
2023-04-06T07:40:09.411Z,1010.46
2023-04-06T07:41:09.851Z,1010.49
2023-04-06T07:42:09.553Z,1010.53
2023-04-06T07:43:09.443Z,1010.46
2023-04-06T07:44:09.512Z,1010.45
2023-04-06T07:45:09.288Z,1010.45
2023-04-06T07:46:09.375Z,1010.43
2023-04-06T07:47:09.327Z,1010.42
2023-04-06T07:48:09.382Z,1010.43
2023-04-06T07:49:09.273Z,1010.41
2023-04-06T07:50:09.414Z,1010.44
2023-04-06T07:51:09.306Z,1010.48
2023-04-06T07:52:09.217Z,1010.46
2023-04-06T07:53:09.324Z,1010.37
2023-04-06T07:54:09.341Z,1010.35
2023-04-06T07:55:09.188Z,1010.31
2023-04-06T07:56:09.258Z,1010.37
2023-04-06T07:57:09.245Z,1010.33
2023-04-06T07:58:09.186Z,1010.34
2023-04-06T07:59:09.214Z,1010.35
2023-04-06T08:00:09.179Z,1010.35
2023-04-06T08:01:09.302Z,1010.30
2023-04-06T08:02:09.161Z,1010.29
2023-04-06T08:03:09.156Z,1010.27
2023-04-06T08:04:09.396Z,1010.30
2023-04-06T08:05:09.079Z,1010.30
2023-04-06T08:06:09.155Z,1010.29
2023-04-06T08:07:09.075Z,1010.28
2023-04-06T08:08:09.250Z,1010.38
2023-04-06T08:09:09.102Z,1010.29
2023-04-06T08:10:09.144Z,1010.30
2023-04-06T08:11:09.042Z,1010.27
2023-04-06T08:12:09.090Z,1010.27
2023-04-06T08:13:08.985Z,1010.26
2023-04-06T08:14:09.314Z,1010.27
2023-04-06T08:15:08.956Z,1010.29
2023-04-06T08:16:09.213Z,1010.24
2023-04-06T08:17:08.943Z,1010.22
2023-04-06T08:18:09.028Z,1010.22
2023-04-06T08:19:08.927Z,1010.36
2023-04-06T08:20:09.003Z,1010.26
2023-04-06T08:21:08.931Z,1010.25
2023-04-06T08:22:08.896Z,1010.21
2023-04-06T08:23:08.882Z,1010.22
2023-04-06T08:24:09.124Z,1010.20
2023-04-06T08:25:08.860Z,1010.23
2023-04-06T08:26:08.914Z,1010.24
2023-04-06T08:27:08.868Z,1010.24
2023-04-06T08:28:09.131Z,1010.22
2023-04-06T08:29:08.850Z,1010.18
2023-04-06T08:30:08.948Z,1010.16
2023-04-06T08:31:08.931Z,1010.15
2023-04-06T08:32:08.796Z,1010.12
2023-04-06T08:33:08.827Z,1010.14
2023-04-06T08:34:10.905Z,1010.12
2023-04-06T08:35:08.748Z,1010.14
2023-04-06T08:36:08.928Z,1010.13
2023-04-06T08:37:08.730Z,1010.12
2023-04-06T08:38:08.795Z,1010.16
2023-04-06T08:39:08.792Z,1010.12
2023-04-06T08:40:08.803Z,1010.14
2023-04-06T08:41:08.692Z,1010.15
2023-04-06T08:42:08.694Z,1010.14
2023-04-06T08:43:08.662Z,1010.13
2023-04-06T08:44:08.868Z,1010.12
2023-04-06T08:45:08.646Z,1010.12
2023-04-06T08:46:09.374Z,1010.10
2023-04-06T08:47:08.614Z,1010.03
2023-04-06T08:48:08.693Z,1010.04
2023-04-06T08:49:08.668Z,1010.03
2023-04-06T08:50:08.703Z,1010.05
2023-04-06T08:51:08.606Z,1010.07
2023-04-06T08:52:08.714Z,1010.05
2023-04-06T08:53:08.553Z,1010.01
2023-04-06T08:54:08.763Z,1010.04
2023-04-06T08:55:08.533Z,1010.03
2023-04-06T08:56:08.562Z,1010.03
2023-04-06T08:57:08.504Z,1010.02
2023-04-06T08:58:08.501Z,1010.00
2023-04-06T08:59:08.518Z,1010.00
2023-04-06T09:00:08.527Z,1010.00
2023-04-06T09:01:08.484Z,1010.05
2023-04-06T09:02:08.607Z,1010.03
2023-04-06T09:03:08.615Z,1010.00
2023-04-06T09:04:09.503Z,1010.00
2023-04-06T09:05:08.424Z,1010.01
2023-04-06T09:06:08.488Z,1009.92
2023-04-06T09:07:08.420Z,1009.90
2023-04-06T09:08:08.841Z,1009.90
2023-04-06T09:09:08.389Z,1009.95
2023-04-06T09:10:08.448Z,1009.93
2023-04-06T09:11:08.409Z,1009.93
2023-04-06T09:12:08.442Z,1009.93
2023-04-06T09:13:08.395Z,1009.89
2023-04-06T09:14:08.582Z,1009.86
2023-04-06T09:15:08.309Z,1009.87
2023-04-06T09:16:08.453Z,1009.87
2023-04-06T09:17:08.373Z,1009.95
2023-04-06T09:18:08.404Z,1009.89
2023-04-06T09:19:08.275Z,1009.93
2023-04-06T09:20:08.393Z,1009.91
2023-04-06T09:21:08.362Z,1009.93
2023-04-06T09:22:08.690Z,1009.90
2023-04-06T09:23:08.240Z,1009.90
2023-04-06T09:24:08.600Z,1009.95
2023-04-06T09:25:08.206Z,1009.93
2023-04-06T09:26:08.571Z,1009.92
2023-04-06T09:27:08.213Z,1009.93
2023-04-06T09:28:08.279Z,1009.85
2023-04-06T09:29:08.200Z,1009.89
2023-04-06T09:30:08.248Z,1009.85
2023-04-06T09:31:08.252Z,1009.85
2023-04-06T09:32:08.235Z,1009.85
2023-04-06T09:33:08.213Z,1009.86
2023-04-06T09:34:08.440Z,1009.88
2023-04-06T09:35:08.114Z,1009.81
2023-04-06T09:36:08.153Z,1009.82
2023-04-06T09:37:08.084Z,1009.77
2023-04-06T09:38:08.100Z,1009.78
2023-04-06T09:39:08.059Z,1009.78
2023-04-06T09:40:08.106Z,1009.79
2023-04-06T09:41:08.071Z,1009.77
2023-04-06T09:42:08.146Z,1009.78
2023-04-06T09:43:08.068Z,1009.79
2023-04-06T09:44:08.364Z,1009.79
2023-04-06T09:45:08.022Z,1009.77
2023-04-06T09:46:08.060Z,1009.71
2023-04-06T09:47:08.063Z,1009.72
2023-04-06T09:48:08.029Z,1009.75
2023-04-06T09:49:08.250Z,1009.69
2023-04-06T09:50:08.181Z,1009.72
2023-04-06T09:51:08.053Z,1009.68
2023-04-06T09:52:08.048Z,1009.75
2023-04-06T09:53:07.944Z,1009.68
2023-04-06T09:54:08.107Z,1009.65
2023-04-06T09:55:07.913Z,1009.65
2023-04-06T09:56:08.009Z,1009.70
2023-04-06T09:57:07.865Z,1009.64
2023-04-06T09:58:08.302Z,1009.66
2023-04-06T09:59:08.256Z,1009.62
2023-04-06T10:00:07.985Z,1009.59
2023-04-06T10:01:07.902Z,1009.59
2023-04-06T10:02:07.894Z,1009.56
2023-04-06T10:03:09.657Z,1009.56
2023-04-06T10:04:08.422Z,1009.52
2023-04-06T10:05:07.785Z,1009.59
2023-04-06T10:06:07.805Z,1009.56
2023-04-06T10:07:07.765Z,1009.61
2023-04-06T10:08:07.888Z,1009.58
2023-04-06T10:09:07.747Z,1009.64
2023-04-06T10:10:07.758Z,1009.61
2023-04-06T10:11:07.743Z,1009.67
2023-04-06T10:12:07.953Z,1009.65
2023-04-06T10:13:07.769Z,1009.66
2023-04-06T10:14:08.137Z,1009.64
2023-04-06T10:15:07.703Z,1009.58
2023-04-06T10:16:07.797Z,1009.59
2023-04-06T10:17:07.691Z,1009.66
2023-04-06T10:18:07.808Z,1009.63
2023-04-06T10:19:07.637Z,1009.64
2023-04-06T10:20:07.717Z,1009.65
2023-04-06T10:21:07.619Z,1009.59
2023-04-06T10:22:07.607Z,1009.62
2023-04-06T10:23:07.580Z,1009.59
2023-04-06T10:24:07.902Z,1009.61
2023-04-06T10:25:07.569Z,1009.65
2023-04-06T10:26:07.966Z,1009.59
2023-04-06T10:27:07.533Z,1009.61
2023-04-06T10:28:07.772Z,1009.59
2023-04-06T10:29:07.546Z,1009.57
2023-04-06T10:30:07.677Z,1009.56
2023-04-06T10:31:07.610Z,1009.54
2023-04-06T10:32:07.578Z,1009.60
2023-04-06T10:33:07.584Z,1009.58
2023-04-06T10:34:07.883Z,1009.52
2023-04-06T10:35:07.463Z,1009.49
2023-04-06T10:36:07.498Z,1009.54
2023-04-06T10:37:07.439Z,1009.54
2023-04-06T10:38:07.462Z,1009.53
2023-04-06T10:39:07.595Z,1009.53
2023-04-06T10:40:07.950Z,1009.53
2023-04-06T10:41:07.497Z,1009.52
2023-04-06T10:42:07.418Z,1009.51
2023-04-06T10:43:07.631Z,1009.48
2023-04-06T10:44:07.773Z,1009.51
2023-04-06T10:45:07.396Z,1009.52
2023-04-06T10:46:07.423Z,1009.52
2023-04-06T10:47:07.329Z,1009.51
2023-04-06T10:48:07.379Z,1009.54
2023-04-06T10:49:07.334Z,1009.58
2023-04-06T10:50:07.392Z,1009.53
2023-04-06T10:51:07.320Z,1009.51
2023-04-06T10:52:07.441Z,1009.49
2023-04-06T10:53:07.289Z,1009.52
2023-04-06T10:54:07.394Z,1009.48
2023-04-06T10:55:07.252Z,1009.45
2023-04-06T10:56:07.408Z,1009.48
2023-04-06T10:57:07.354Z,1009.49
2023-04-06T10:58:07.697Z,1009.49
2023-04-06T10:59:07.277Z,1009.52
2023-04-06T11:00:07.326Z,1009.52
2023-04-06T11:01:07.205Z,1009.50
2023-04-06T11:02:07.281Z,1009.47
2023-04-06T11:03:07.295Z,1009.41
2023-04-06T11:04:07.301Z,1009.42
2023-04-06T11:05:07.275Z,1009.41
2023-04-06T11:06:07.283Z,1009.41
2023-04-06T11:07:07.142Z,1009.45
2023-04-06T11:08:07.176Z,1009.44
2023-04-06T11:09:07.105Z,1009.46
2023-04-06T11:10:16.573Z,1009.42
2023-04-06T11:11:08.098Z,1009.44
2023-04-06T11:12:07.158Z,1009.39
2023-04-06T11:13:07.082Z,1009.39
2023-04-06T11:14:07.242Z,1009.43
2023-04-06T11:15:07.067Z,1009.39
2023-04-06T11:16:07.052Z,1009.44
2023-04-06T11:17:07.157Z,1009.48
2023-04-06T11:18:07.079Z,1009.41
2023-04-06T11:19:07.077Z,1009.45
2023-04-06T11:20:07.197Z,1009.49
2023-04-06T11:21:06.971Z,1009.45
2023-04-06T11:22:07.020Z,1009.44
2023-04-06T11:23:06.962Z,1009.44
2023-04-06T11:24:06.984Z,1009.45
2023-04-06T11:25:06.948Z,1009.47
2023-04-06T11:26:06.928Z,1009.45
2023-04-06T11:27:06.895Z,1009.44
2023-04-06T11:28:06.901Z,1009.47
2023-04-06T11:29:06.908Z,1009.45
2023-04-06T11:30:07.048Z,1009.43
2023-04-06T11:31:06.885Z,1009.42
2023-04-06T11:32:06.926Z,1009.39
2023-04-06T11:33:07.013Z,1009.40
2023-04-06T11:34:07.091Z,1009.36
2023-04-06T11:35:06.846Z,1009.38
2023-04-06T11:36:06.984Z,1009.35
2023-04-06T11:37:06.808Z,1009.31
2023-04-06T11:38:06.866Z,1009.38
2023-04-06T11:39:06.772Z,1009.38
2023-04-06T11:40:07.301Z,1009.36
2023-04-06T11:41:06.761Z,1009.29
2023-04-06T11:42:09.030Z,1009.36
2023-04-06T11:43:06.732Z,1009.31
2023-04-06T11:44:06.775Z,1009.27
2023-04-06T11:45:07.008Z,1009.28
2023-04-06T11:46:06.787Z,1009.28
2023-04-06T11:47:06.715Z,1009.27
2023-04-06T11:48:06.785Z,1009.23
2023-04-06T11:49:06.710Z,1009.24
2023-04-06T11:50:07.295Z,1009.22
2023-04-06T11:51:06.676Z,1009.32
2023-04-06T11:52:06.665Z,1009.25
2023-04-06T11:53:06.638Z,1009.24
2023-04-06T11:54:06.664Z,1009.20
2023-04-06T11:55:06.695Z,1009.26
2023-04-06T11:56:06.865Z,1009.20
2023-04-06T11:57:06.644Z,1009.22
2023-04-06T11:58:06.665Z,1009.25
2023-04-06T11:59:06.618Z,1009.30
2023-04-06T12:00:06.719Z,1009.23
2023-04-06T12:01:06.524Z,1009.31
2023-04-06T12:02:06.534Z,1009.31
2023-04-06T12:03:06.713Z,1009.33
2023-04-06T12:04:06.804Z,1009.28
2023-04-06T12:05:06.500Z,1009.26